createdAt,value
2023-01-06T00:00:30.649Z,99785.91
2023-01-06T00:03:01.874Z,99789.81
2023-01-06T00:05:32.928Z,99800.84
2023-01-06T00:08:01.466Z,99802.34
2023-01-06T00:10:33.212Z,99790.09
2023-01-06T00:13:01.458Z,99817.03
2023-01-06T00:15:30.707Z,99820.91
2023-01-06T00:17:59.022Z,99818.31
2023-01-06T00:20:27.328Z,99804.47
2023-01-06T00:22:55.406Z,99815.66
2023-01-06T00:25:25.040Z,99830.69
2023-01-06T00:27:53.285Z,99813.28
2023-01-06T00:30:21.016Z,99830.66
2023-01-06T00:32:48.876Z,99831.59
2023-01-06T00:35:18.809Z,99813.75
2023-01-06T00:37:46.668Z,99849.94
2023-01-06T00:40:15.312Z,99859.34
2023-01-06T00:42:43.626Z,99831.34
2023-01-06T00:45:11.735Z,99861.63
2023-01-06T00:47:39.586Z,99855.97
2023-01-06T00:50:08.561Z,99872.28
2023-01-06T00:52:41.126Z,99876.81
2023-01-06T00:55:09.649Z,99872.41
2023-01-06T00:57:41.007Z,99864.37
2023-01-06T01:00:10.904Z,99873.31
2023-01-06T01:02:38.976Z,99881.63
2023-01-06T01:05:07.230Z,99887.66
2023-01-06T01:07:36.871Z,99872.63
2023-01-06T01:10:05.056Z,99872.94
2023-01-06T01:12:32.911Z,99893.25
2023-01-06T01:15:01.024Z,99895.28
2023-01-06T01:17:32.829Z,99903.94
2023-01-06T01:20:04.194Z,99908.28
2023-01-06T01:22:33.625Z,99917.28
2023-01-06T01:25:02.072Z,99928.12
2023-01-06T01:27:32.805Z,99922.00
2023-01-06T01:30:00.668Z,99925.97
2023-01-06T01:32:31.324Z,99938.84
2023-01-06T01:34:59.349Z,99931.56
2023-01-06T01:37:27.184Z,99947.34
2023-01-06T01:39:55.429Z,99939.66
2023-01-06T01:42:23.393Z,99946.59
2023-01-06T01:45:05.079Z,99957.69
2023-01-06T01:47:48.068Z,99959.81
2023-01-06T01:50:46.281Z,99950.34
2023-01-06T01:53:21.508Z,99965.06
2023-01-06T01:55:53.436Z,99964.19
2023-01-06T01:58:41.837Z,99967.56
2023-01-06T02:01:11.701Z,99971.25
2023-01-06T02:03:42.501Z,99963.94
2023-01-06T02:06:17.478Z,99963.16
2023-01-06T02:08:51.303Z,99957.41
2023-01-06T02:11:19.699Z,99950.03
2023-01-06T02:14:19.862Z,99957.59
2023-01-06T02:17:11.262Z,99967.72
2023-01-06T02:20:01.131Z,99957.06
2023-01-06T02:22:30.883Z,99970.09
2023-01-06T02:25:36.610Z,99976.31
2023-01-06T02:28:49.061Z,99987.72
2023-01-06T02:31:46.354Z,99978.19
2023-01-06T02:34:23.245Z,99994.91
2023-01-06T02:37:17.459Z,99996.41
2023-01-06T02:39:46.925Z,99991.81
2023-01-06T02:42:43.854Z,99982.38
2023-01-06T02:45:35.633Z,99985.13
2023-01-06T02:48:27.552Z,99994.44
2023-01-06T02:51:39.758Z,100002.47
2023-01-06T02:54:34.270Z,100012.34
2023-01-06T02:57:14.688Z,100017.63
2023-01-06T03:00:19.853Z,100020.53
2023-01-06T03:02:56.315Z,100022.47
2023-01-06T03:05:26.447Z,100035.53
2023-01-06T03:07:57.897Z,100043.31
2023-01-06T03:10:29.338Z,100035.69
2023-01-06T03:13:20.203Z,100049.84
2023-01-06T03:15:49.321Z,100064.63
2023-01-06T03:18:17.512Z,100065.66
2023-01-06T03:20:47.344Z,100065.94
2023-01-06T03:23:15.758Z,100067.09
2023-01-06T03:25:44.195Z,100062.75
2023-01-06T03:28:12.937Z,100063.06
2023-01-06T03:31:11.380Z,100079.00
2023-01-06T03:34:11.174Z,100085.25
2023-01-06T03:37:02.198Z,100087.09
2023-01-06T03:40:10.788Z,100097.34
2023-01-06T03:43:16.504Z,100093.56
2023-01-06T03:46:17.102Z,100114.50
2023-01-06T03:49:03.479Z,100110.81
2023-01-06T03:52:08.846Z,100110.31
2023-01-06T03:54:37.105Z,100099.66
2023-01-06T03:57:16.346Z,100115.50
2023-01-06T03:59:53.455Z,100127.34
2023-01-06T04:02:22.814Z,100123.22
2023-01-06T04:05:23.756Z,100126.84
2023-01-06T04:07:55.327Z,100132.84
2023-01-06T04:10:24.150Z,100128.59
2023-01-06T04:12:53.332Z,100142.97
2023-01-06T04:15:26.784Z,100139.53
2023-01-06T04:17:55.759Z,100133.22
2023-01-06T04:20:28.121Z,100108.91
2023-01-06T04:22:58.364Z,100147.31
2023-01-06T04:25:26.778Z,100154.84
2023-01-06T04:27:55.051Z,100141.69
2023-01-06T04:30:23.683Z,100141.34
2023-01-06T04:32:54.475Z,100162.31
2023-01-06T04:35:22.388Z,100165.16
2023-01-06T04:37:50.672Z,100162.25
2023-01-06T04:40:18.506Z,100167.91
2023-01-06T04:43:04.554Z,100166.00
2023-01-06T04:45:36.374Z,100190.78
2023-01-06T04:48:04.478Z,100182.38
2023-01-06T04:50:32.759Z,100185.53
2023-01-06T04:53:01.181Z,100192.44
2023-01-06T04:55:31.325Z,100201.59
2023-01-06T04:58:02.764Z,100198.81
2023-01-06T05:00:33.629Z,100197.22
2023-01-06T05:03:01.975Z,100191.09
2023-01-06T05:05:29.908Z,100199.38
2023-01-06T05:07:57.669Z,100192.47
2023-01-06T05:10:25.945Z,100199.75
2023-01-06T05:12:53.782Z,100196.87
2023-01-06T05:15:21.708Z,100206.59
2023-01-06T05:17:49.958Z,100219.19
2023-01-06T05:20:17.849Z,100223.97
2023-01-06T05:22:45.677Z,100224.03
2023-01-06T05:25:16.791Z,100230.22
2023-01-06T05:27:44.681Z,100231.56
2023-01-06T05:30:13.187Z,100242.38
2023-01-06T05:32:41.453Z,100243.34
2023-01-06T05:35:09.786Z,100236.31
2023-01-06T05:37:37.625Z,100239.28
2023-01-06T05:40:06.396Z,100248.47
2023-01-06T05:42:34.270Z,100239.38
2023-01-06T05:45:05.622Z,100240.44
2023-01-06T05:47:33.981Z,100248.91
2023-01-06T05:50:01.990Z,100240.19
2023-01-06T05:52:31.049Z,100251.09
2023-01-06T05:54:59.329Z,100256.78
2023-01-06T05:57:27.223Z,100254.22
2023-01-06T05:59:58.069Z,100261.81
2023-01-06T06:02:26.850Z,100282.22
2023-01-06T06:04:55.251Z,100269.19
2023-01-06T06:07:23.195Z,100273.03
2023-01-06T06:09:51.142Z,100286.88
2023-01-06T06:12:22.398Z,100292.78
2023-01-06T06:14:50.146Z,100278.69
2023-01-06T06:17:17.893Z,100296.72
2023-01-06T06:19:46.094Z,100300.38
2023-01-06T06:22:13.859Z,100282.81
2023-01-06T06:24:41.884Z,100301.69
2023-01-06T06:27:10.259Z,100299.31
2023-01-06T06:29:38.087Z,100320.06
2023-01-06T06:32:06.205Z,100326.13
2023-01-06T06:34:34.468Z,100323.06
2023-01-06T06:37:02.343Z,100326.03
2023-01-06T06:39:30.215Z,100324.31
2023-01-06T06:41:58.470Z,100319.19
2023-01-06T06:44:26.175Z,100346.16
2023-01-06T06:46:53.965Z,100347.84
2023-01-06T06:49:22.259Z,100331.09
2023-01-06T06:51:50.219Z,100342.16
2023-01-06T06:54:18.028Z,100356.88
2023-01-06T06:56:46.315Z,100361.78
2023-01-06T06:59:14.313Z,100361.31
2023-01-06T07:01:42.328Z,100336.63
2023-01-06T07:04:10.839Z,100373.28
2023-01-06T07:06:38.943Z,100365.91
2023-01-06T07:09:07.198Z,100383.59
2023-01-06T07:11:35.722Z,100385.53
2023-01-06T07:14:03.447Z,100378.22
2023-01-06T07:16:34.083Z,100382.91
2023-01-06T07:19:02.801Z,100392.25
2023-01-06T07:21:33.728Z,100384.59
2023-01-06T07:24:01.767Z,100397.31
2023-01-06T07:26:30.271Z,100397.03
2023-01-06T07:28:58.082Z,100403.06
2023-01-06T07:31:26.118Z,100394.62
2023-01-06T07:33:57.207Z,100405.28
2023-01-06T07:36:25.026Z,100416.06
2023-01-06T07:38:55.860Z,100416.41
2023-01-06T07:41:24.795Z,100429.44
2023-01-06T07:43:53.233Z,100424.13
2023-01-06T07:46:21.408Z,100429.12
2023-01-06T07:48:49.923Z,100432.25
2023-01-06T07:51:18.874Z,100419.00
2023-01-06T07:53:47.482Z,100452.47
2023-01-06T07:56:16.602Z,100451.44
2023-01-06T07:58:45.299Z,100441.22
2023-01-06T08:01:14.894Z,100451.53
2023-01-06T08:03:43.930Z,100460.94
2023-01-06T08:06:14.990Z,100451.53
2023-01-06T08:08:43.363Z,100435.25
2023-01-06T08:11:13.550Z,100454.97
2023-01-06T08:13:42.020Z,100456.72
2023-01-06T08:16:12.233Z,100470.34
2023-01-06T08:18:43.401Z,100462.44
2023-01-06T08:21:14.202Z,100474.94
2023-01-06T08:23:43.749Z,100484.37
2023-01-06T08:26:18.964Z,100483.06
2023-01-06T08:28:51.664Z,100481.75
2023-01-06T08:31:23.381Z,100486.12
2023-01-06T08:33:53.950Z,100492.97
2023-01-06T08:36:29.916Z,100485.53
2023-01-06T08:38:59.081Z,100484.31
2023-01-06T08:41:31.459Z,100481.69
2023-01-06T08:44:05.053Z,100487.06
2023-01-06T08:46:37.007Z,100482.38
2023-01-06T08:49:05.824Z,100492.62
2023-01-06T08:51:36.006Z,100499.00
2023-01-06T08:54:09.190Z,100500.44
2023-01-06T08:56:40.146Z,100504.38
2023-01-06T08:59:08.569Z,100519.22
2023-01-06T09:01:40.366Z,100522.81
2023-01-06T09:04:12.236Z,100515.16
2023-01-06T09:06:46.445Z,100506.69
2023-01-06T09:09:18.637Z,100500.91
2023-01-06T09:11:52.497Z,100492.59
2023-01-06T09:14:26.240Z,100494.75
2023-01-06T09:16:56.242Z,100487.87
2023-01-06T09:19:30.051Z,100483.53
2023-01-06T09:22:00.959Z,100510.16
2023-01-06T09:24:33.908Z,100508.19
2023-01-06T09:27:03.778Z,100493.12
2023-01-06T09:29:34.068Z,100491.94
2023-01-06T09:32:06.463Z,100488.22
2023-01-06T09:34:38.532Z,100495.09
2023-01-06T09:37:10.774Z,100505.91
2023-01-06T09:39:44.761Z,100507.41
2023-01-06T09:42:19.810Z,100511.97
2023-01-06T09:45:13.216Z,100517.44
2023-01-06T09:47:52.033Z,100516.97
2023-01-06T09:50:33.383Z,100513.16
2023-01-06T09:53:26.548Z,100505.31
2023-01-06T09:56:02.739Z,100509.62
2023-01-06T09:58:51.161Z,100517.12
2023-01-06T10:01:31.532Z,100522.97
2023-01-06T10:04:02.959Z,100520.94
2023-01-06T10:06:44.939Z,100521.31
2023-01-06T10:09:41.657Z,100514.75
2023-01-06T10:12:18.314Z,100522.69
2023-01-06T10:15:07.537Z,100525.41
2023-01-06T10:18:13.260Z,100527.69
2023-01-06T10:20:53.595Z,100516.72
2023-01-06T10:23:51.945Z,100516.03
2023-01-06T10:26:33.077Z,100532.31
2023-01-06T10:29:13.514Z,100530.78
2023-01-06T10:31:47.647Z,100518.69
2023-01-06T10:34:29.642Z,100519.16
2023-01-06T10:37:25.499Z,100519.81
2023-01-06T10:40:15.635Z,100526.19
2023-01-06T10:43:07.974Z,100527.44
2023-01-06T10:45:50.512Z,100530.38
2023-01-06T10:48:28.101Z,100535.37
2023-01-06T10:51:00.743Z,100544.50
2023-01-06T10:53:32.765Z,100548.19
2023-01-06T10:56:06.698Z,100552.50
2023-01-06T10:58:45.756Z,100543.00
2023-01-06T11:01:21.408Z,100532.41
2023-01-06T11:04:17.347Z,100547.44
2023-01-06T11:06:51.908Z,100549.81
2023-01-06T11:09:41.677Z,100551.41
2023-01-06T11:12:21.900Z,100552.03
2023-01-06T11:15:03.671Z,100560.47
2023-01-06T11:17:37.704Z,100546.72
2023-01-06T11:20:27.988Z,100558.19
2023-01-06T11:23:21.811Z,100550.34
2023-01-06T11:26:14.179Z,100545.69
2023-01-06T11:28:49.387Z,100560.97
2023-01-06T11:31:26.947Z,100566.37
2023-01-06T11:34:01.317Z,100558.28
2023-01-06T11:36:33.814Z,100555.72
2023-01-06T11:39:13.187Z,100558.53
2023-01-06T11:41:48.550Z,100557.69
2023-01-06T11:44:39.938Z,100561.34
2023-01-06T11:47:23.332Z,100567.44
2023-01-06T11:50:02.013Z,100564.44
2023-01-06T11:52:37.313Z,100557.81
2023-01-06T11:55:13.371Z,100556.75
2023-01-06T11:58:17.786Z,100568.66
2023-01-06T12:01:07.308Z,100572.13
2023-01-06T12:03:44.839Z,100569.44
2023-01-06T12:06:37.943Z,100567.03
2023-01-06T12:09:33.539Z,100587.72
2023-01-06T12:12:12.784Z,100591.00
2023-01-06T12:14:44.275Z,100594.84
2023-01-06T12:17:46.361Z,100587.22
2023-01-06T12:20:26.641Z,100592.97
2023-01-06T12:23:05.475Z,100604.69
2023-01-06T12:25:51.478Z,100601.88
2023-01-06T12:28:44.464Z,100597.56
2023-01-06T12:31:50.431Z,100602.56
2023-01-06T12:34:38.582Z,100608.81
2023-01-06T12:37:34.360Z,100597.09
2023-01-06T12:40:09.890Z,100617.88
2023-01-06T12:43:17.657Z,100608.84
2023-01-06T12:45:59.793Z,100611.62
2023-01-06T12:48:44.273Z,100623.31
2023-01-06T12:51:22.222Z,100629.81
2023-01-06T12:53:55.550Z,100617.16
2023-01-06T12:56:59.915Z,100636.47
2023-01-06T13:00:08.608Z,100638.06
2023-01-06T13:03:00.232Z,100646.25
2023-01-06T13:05:50.261Z,100644.69
2023-01-06T13:08:32.548Z,100652.84
2023-01-06T13:11:23.526Z,100647.94
2023-01-06T13:14:27.079Z,100654.69
2023-01-06T13:17:20.648Z,100644.09
2023-01-06T13:19:56.180Z,100650.69
2023-01-06T13:22:47.026Z,100657.53
2023-01-06T13:25:54.779Z,100662.19
2023-01-06T13:29:02.172Z,100674.34
2023-01-06T13:32:02.155Z,100686.09
2023-01-06T13:34:53.664Z,100679.28
2023-01-06T13:37:37.717Z,100681.78
2023-01-06T13:40:16.105Z,100688.56
2023-01-06T13:43:02.311Z,100691.19
2023-01-06T13:45:39.414Z,100688.34
2023-01-06T13:48:28.183Z,100660.59
2023-01-06T13:51:03.585Z,100693.59
2023-01-06T13:53:40.929Z,100706.62
2023-01-06T13:56:17.495Z,100702.16
2023-01-06T13:58:54.247Z,100715.22
2023-01-06T14:01:24.968Z,100712.91
2023-01-06T14:04:28.178Z,100711.06
2023-01-06T14:06:59.402Z,100719.66
2023-01-06T14:09:37.159Z,100724.16
2023-01-06T14:12:25.246Z,100721.63
2023-01-06T14:15:25.000Z,100738.50
2023-01-06T14:17:58.604Z,100739.25
2023-01-06T14:20:42.993Z,100748.19
2023-01-06T14:23:28.964Z,100748.63
2023-01-06T14:26:03.334Z,100754.84
2023-01-06T14:28:36.025Z,100757.50
2023-01-06T14:31:39.284Z,100761.50
2023-01-06T14:34:16.302Z,100754.59
2023-01-06T14:36:48.551Z,100761.72
2023-01-06T14:39:27.869Z,100766.09
2023-01-06T14:42:30.677Z,100758.56
2023-01-06T14:45:07.545Z,100748.44
2023-01-06T14:47:54.060Z,100755.44
2023-01-06T14:50:59.174Z,100764.09
2023-01-06T14:53:37.654Z,100782.09
2023-01-06T14:56:11.595Z,100766.53
2023-01-06T14:58:42.970Z,100772.41
2023-01-06T15:01:29.733Z,100795.44
2023-01-06T15:04:10.785Z,100784.50
2023-01-06T15:06:41.143Z,100795.56
2023-01-06T15:09:21.337Z,100805.28
2023-01-06T15:11:52.055Z,100802.22
2023-01-06T15:14:30.888Z,100809.44
2023-01-06T15:17:05.129Z,100803.41
2023-01-06T15:19:42.494Z,100823.19
2023-01-06T15:22:15.911Z,100816.66
2023-01-06T15:24:45.963Z,100825.38
2023-01-06T15:27:18.267Z,100819.28
2023-01-06T15:29:55.099Z,100820.53
2023-01-06T15:32:29.066Z,100814.16
2023-01-06T15:35:03.135Z,100820.78
2023-01-06T15:37:37.347Z,100817.31
2023-01-06T15:40:08.220Z,100822.91
2023-01-06T15:42:43.141Z,100825.09
2023-01-06T15:45:39.119Z,100821.88
2023-01-06T15:48:19.440Z,100830.31
2023-01-06T15:50:56.485Z,100826.63
2023-01-06T15:53:37.248Z,100825.59
2023-01-06T15:56:23.984Z,100834.59
2023-01-06T15:58:57.942Z,100850.69
2023-01-06T16:01:27.806Z,100843.19
2023-01-06T16:04:02.371Z,100840.44
2023-01-06T16:06:37.416Z,100855.00
2023-01-06T16:09:26.187Z,100853.59
2023-01-06T16:12:12.015Z,100850.28
2023-01-06T16:14:46.677Z,100864.88
2023-01-06T16:17:36.068Z,100862.03
2023-01-06T16:20:22.556Z,100868.19
2023-01-06T16:22:57.057Z,100855.47
2023-01-06T16:25:34.933Z,100870.63
2023-01-06T16:28:08.271Z,100873.31
2023-01-06T16:30:41.576Z,100891.16
2023-01-06T16:33:41.268Z,100885.31
2023-01-06T16:36:18.012Z,100881.81
2023-01-06T16:38:50.905Z,100878.56
2023-01-06T16:41:21.561Z,100889.88
2023-01-06T16:43:53.115Z,100908.47
2023-01-06T16:46:28.195Z,100905.41
2023-01-06T16:49:10.719Z,100905.94
2023-01-06T16:51:48.899Z,100901.34
2023-01-06T16:54:23.149Z,100906.59
2023-01-06T16:56:54.269Z,100903.59
2023-01-06T16:59:26.508Z,100909.84
2023-01-06T17:01:56.466Z,100917.19
2023-01-06T17:04:29.115Z,100920.47
2023-01-06T17:06:58.936Z,100928.03
2023-01-06T17:09:30.501Z,100935.88
2023-01-06T17:12:03.855Z,100924.56
2023-01-06T17:14:38.832Z,100926.09
2023-01-06T17:17:23.241Z,100927.50
2023-01-06T17:19:56.201Z,100917.72
2023-01-06T17:22:31.187Z,100929.97
2023-01-06T17:25:15.394Z,100931.22
2023-01-06T17:27:47.875Z,100937.75
2023-01-06T17:30:20.286Z,100934.94
2023-01-06T17:32:52.929Z,100934.03
2023-01-06T17:35:34.624Z,100924.16
2023-01-06T17:38:25.649Z,100935.37
2023-01-06T17:40:57.169Z,100914.72
2023-01-06T17:43:39.103Z,100916.25
2023-01-06T17:46:36.933Z,100937.38
2023-01-06T17:49:23.405Z,100922.88
2023-01-06T17:51:52.401Z,100940.22
2023-01-06T17:54:46.164Z,100946.75
2023-01-06T17:57:23.965Z,100932.13
2023-01-06T17:59:58.101Z,100942.59
2023-01-06T18:02:49.010Z,100941.44
2023-01-06T18:05:20.491Z,100951.66
2023-01-06T18:08:12.764Z,100948.78
2023-01-06T18:11:09.365Z,100960.19
2023-01-06T18:13:44.055Z,100966.16
2023-01-06T18:16:22.093Z,100957.31
2023-01-06T18:18:52.303Z,100958.59
2023-01-06T18:21:39.362Z,100951.41
2023-01-06T18:24:42.584Z,100958.59
2023-01-06T18:27:29.616Z,100945.59
2023-01-06T18:30:16.282Z,100953.13
2023-01-06T18:32:51.879Z,100944.97
2023-01-06T18:35:30.544Z,100947.69
2023-01-06T18:38:02.730Z,100965.59
2023-01-06T18:40:36.834Z,100964.06
2023-01-06T18:43:25.828Z,100958.72
2023-01-06T18:46:19.924Z,100960.09
2023-01-06T18:48:49.196Z,100965.25
2023-01-06T18:51:30.444Z,100972.50
2023-01-06T18:54:23.348Z,100972.72
2023-01-06T18:57:11.638Z,100956.66
2023-01-06T19:00:57.003Z,100977.88
2023-01-06T19:03:36.872Z,100981.03
2023-01-06T19:06:12.456Z,100963.09
2023-01-06T19:08:43.632Z,100978.09
2023-01-06T19:11:21.866Z,100978.34
2023-01-06T19:13:55.944Z,100968.53
2023-01-06T19:16:49.071Z,100988.25
2023-01-06T19:19:24.314Z,100982.53
2023-01-06T19:22:09.523Z,100984.59
2023-01-06T19:25:06.875Z,100974.12
2023-01-06T19:27:50.809Z,100980.38
2023-01-06T19:30:43.257Z,100981.09
2023-01-06T19:33:37.252Z,100994.03
2023-01-06T19:36:06.252Z,101002.56
2023-01-06T19:38:43.534Z,101003.56
2023-01-06T19:41:27.478Z,100989.59
2023-01-06T19:44:20.032Z,100999.75
2023-01-06T19:46:50.763Z,100998.72
2023-01-06T19:49:26.423Z,101012.91
2023-01-06T19:51:57.486Z,101019.06
2023-01-06T19:54:30.094Z,101012.06
2023-01-06T19:56:59.608Z,101014.22
2023-01-06T19:59:34.775Z,101022.19
2023-01-06T20:02:26.519Z,101025.44
2023-01-06T20:04:58.756Z,101026.25
2023-01-06T20:07:33.528Z,101034.69
2023-01-06T20:10:04.899Z,101029.44
2023-01-06T20:12:38.014Z,101028.97
2023-01-06T20:15:09.812Z,101028.34
2023-01-06T20:17:37.964Z,101030.13
2023-01-06T20:20:09.085Z,101035.62
2023-01-06T20:22:40.598Z,101041.53
2023-01-06T20:25:13.759Z,101066.72
2023-01-06T20:27:42.066Z,101055.59
2023-01-06T20:30:15.828Z,101056.12
2023-01-06T20:32:45.811Z,101069.72
2023-01-06T20:35:15.970Z,101061.50
2023-01-06T20:37:45.186Z,101040.94
2023-01-06T20:40:14.838Z,101044.56
2023-01-06T20:42:44.439Z,101047.47
2023-01-06T20:45:13.885Z,101038.28
2023-01-06T20:47:44.226Z,101041.75
2023-01-06T20:50:15.652Z,101032.56
2023-01-06T20:52:48.727Z,101040.16
2023-01-06T20:55:19.010Z,101052.75
2023-01-06T20:57:49.399Z,101036.81
2023-01-06T21:00:19.490Z,101048.38
2023-01-06T21:02:47.974Z,101052.91
2023-01-06T21:05:16.632Z,101052.25
2023-01-06T21:07:48.740Z,101053.59
2023-01-06T21:10:16.770Z,101056.34
2023-01-06T21:12:46.335Z,101052.25
2023-01-06T21:15:15.213Z,101045.44
2023-01-06T21:17:43.272Z,101049.53
2023-01-06T21:20:12.215Z,101053.22
2023-01-06T21:22:40.005Z,101054.59
2023-01-06T21:25:08.152Z,101055.00
2023-01-06T21:27:36.419Z,101068.47
2023-01-06T21:30:04.936Z,101064.41
2023-01-06T21:32:32.935Z,101071.84
2023-01-06T21:35:01.626Z,101074.41
2023-01-06T21:37:31.275Z,101073.22
2023-01-06T21:39:59.278Z,101085.38
2023-01-06T21:42:46.359Z,101085.06
2023-01-06T21:45:14.274Z,101085.50
2023-01-06T21:47:42.589Z,101080.50
2023-01-06T21:50:10.878Z,101092.28
2023-01-06T21:52:38.808Z,101084.69
2023-01-06T21:55:07.510Z,101080.87
2023-01-06T21:57:36.483Z,101072.09
2023-01-06T22:00:08.566Z,101097.75
2023-01-06T22:02:41.050Z,101087.03
2023-01-06T22:05:09.836Z,101089.06
2023-01-06T22:07:45.052Z,101089.19
2023-01-06T22:10:15.616Z,101093.59
2023-01-06T22:12:45.972Z,101093.94
2023-01-06T22:15:15.318Z,101093.22
2023-01-06T22:17:43.304Z,101094.13
2023-01-06T22:20:15.164Z,101094.84
2023-01-06T22:22:44.057Z,101078.66
2023-01-06T22:25:11.843Z,101093.19
2023-01-06T22:27:39.691Z,101097.97
2023-01-06T22:30:10.292Z,101087.44
2023-01-06T22:32:47.455Z,101092.22
2023-01-06T22:35:17.388Z,101109.94
2023-01-06T22:37:45.794Z,101106.28
2023-01-06T22:40:15.253Z,101107.19
2023-01-06T22:42:44.444Z,101110.28
2023-01-06T22:45:13.223Z,101107.13
2023-01-06T22:47:41.468Z,101116.09
2023-01-06T22:50:10.496Z,101093.94
2023-01-06T22:52:38.298Z,101104.31
2023-01-06T22:55:09.816Z,101099.91
2023-01-06T22:57:38.020Z,101102.09
2023-01-06T23:00:14.147Z,101113.50
2023-01-06T23:02:45.473Z,101126.59
2023-01-06T23:05:17.456Z,101125.31
2023-01-06T23:07:46.046Z,101104.84
2023-01-06T23:10:15.405Z,101109.16
2023-01-06T23:12:45.621Z,101114.69
2023-01-06T23:15:14.023Z,101106.44
2023-01-06T23:17:41.818Z,101098.56
2023-01-06T23:20:10.380Z,101116.28
2023-01-06T23:22:38.640Z,101113.91
2023-01-06T23:25:07.061Z,101117.19
2023-01-06T23:27:38.721Z,101129.97
2023-01-06T23:30:07.686Z,101121.84
2023-01-06T23:32:35.478Z,101112.41
2023-01-06T23:35:03.511Z,101121.09
2023-01-06T23:37:31.898Z,101113.12
2023-01-06T23:40:00.819Z,101123.41
2023-01-06T23:42:30.287Z,101131.84
2023-01-06T23:44:58.954Z,101091.19
2023-01-06T23:47:30.811Z,101133.94
2023-01-06T23:49:58.956Z,101137.00
2023-01-06T23:52:27.667Z,101132.13
2023-01-06T23:54:58.358Z,101130.09
2023-01-06T23:57:26.418Z,101130.88
2023-01-06T23:59:54.371Z,101127.63
